Time;durP1;ratioP1;P1;durP2;ratioP2;P2;SDS_P1;SDS_P2;PMS_P1;PMS_P2;Temp;Humidity;BMP_temperature;BMP_pressure;BME280_temperature;BME280_humidity;BME280_pressure;Samples;Min_cycle;Max_cycle;Signal;HPM_P1;HPM_P2
2022/07/22 00:00:50;;;;;;;8.18;3.35;;;;;;;16.79;82.29;102114.66;5006090;28;20026;-60
2022/07/22 00:03:15;;;;;;;9.48;3.42;;;;;;;16.78;82.35;102120.78;5002993;28;20032;-61
2022/07/22 00:05:40;;;;;;;10.50;3.65;;;;;;;16.78;81.87;102118.16;5006044;28;20026;-61
2022/07/22 00:08:06;;;;;;;7.50;3.70;;;;;;;16.78;82.08;102115.50;5004528;28;20056;-60
2022/07/22 00:10:31;;;;;;;8.52;3.70;;;;;;;16.77;83.14;102118.13;5008294;28;20034;-61
2022/07/22 00:12:57;;;;;;;10.43;3.60;;;;;;;16.76;83.08;102109.34;5006595;28;20065;-61
2022/07/22 00:15:22;;;;;;;9.90;4.00;;;;;;;16.76;82.87;102109.34;5005106;28;20028;-60
2022/07/22 00:17:47;;;;;;;10.55;4.10;;;;;;;16.76;83.15;102108.47;5000663;28;20033;-57
2022/07/22 00:20:12;;;;;;;10.25;4.10;;;;;;;16.75;83.29;102109.31;5005084;28;20100;-61
2022/07/22 00:22:38;;;;;;;10.02;3.80;;;;;;;16.75;83.24;102106.69;5008467;28;20175;-61
2022/07/22 00:25:04;;;;;;;10.70;4.40;;;;;;;16.75;82.84;102104.94;5009233;28;20026;-59
2022/07/22 00:27:29;;;;;;;8.88;4.32;;;;;;;16.75;83.71;102110.19;5002851;28;20033;-60
2022/07/22 00:29:55;;;;;;;10.07;3.88;;;;;;;16.74;83.47;102108.41;5007152;28;20073;-61
2022/07/22 00:32:20;;;;;;;9.60;4.50;;;;;;;16.75;83.68;102110.19;5002229;28;20673;-60
2022/07/22 00:34:45;;;;;;;11.40;4.40;;;;;;;16.76;83.87;102106.72;5005428;28;20029;-61
2022/07/22 00:37:11;;;;;;;12.27;4.68;;;;;;;16.76;83.09;102103.22;5004584;28;20025;-60
2022/07/22 00:39:36;;;;;;;12.15;4.80;;;;;;;16.75;83.13;102104.94;5003911;28;20022;-61
2022/07/22 00:42:02;;;;;;;11.90;4.93;;;;;;;16.76;83.10;102105.84;5007199;28;20043;-61
2022/07/22 00:44:28;;;;;;;12.45;4.95;;;;;;;16.76;82.98;102100.59;5007172;28;20014;-60
2022/07/22 00:46:53;;;;;;;13.18;5.13;;;;;;;16.72;82.65;102099.63;5005389;28;20037;-60
2022/07/22 00:49:19;;;;;;;12.30;5.07;;;;;;;16.72;83.50;102104.00;5005156;28;20037;-61
2022/07/22 00:51:46;;;;;;;11.13;5.53;;;;;;;16.72;83.13;102102.25;5007940;28;20044;-60
2022/07/22 00:54:12;;;;;;;15.20;6.05;;;;;;;16.74;82.95;102102.28;5006346;28;20038;-61
2022/07/22 00:56:38;;;;;;;12.07;5.30;;;;;;;16.74;83.08;102097.88;5006899;28;20105;-60
2022/07/22 00:59:06;;;;;;;9.52;5.20;;;;;;;16.73;83.09;102090.88;5003700;28;20034;-61
2022/07/22 01:01:31;;;;;;;12.93;5.28;;;;;;;16.75;83.49;102094.41;5006108;28;20037;-61
2022/07/22 01:03:57;;;;;;;12.50;5.20;;;;;;;16.75;83.34;102093.53;5005627;28;20400;-60
2022/07/22 01:06:22;;;;;;;14.18;4.85;;;;;;;16.74;83.58;102094.38;5004205;28;20125;-60
2022/07/22 01:08:48;;;;;;;16.23;5.57;;;;;;;16.74;84.10;102090.00;5008312;28;20042;-61
2022/07/22 01:11:16;;;;;;;11.50;5.38;;;;;;;16.70;83.97;102088.19;5005751;28;20608;-60
2022/07/22 01:13:43;;;;;;;13.73;5.37;;;;;;;16.71;84.44;102086.44;5002170;28;20512;-60
2022/07/22 01:16:09;;;;;;;11.73;5.65;;;;;;;16.71;83.82;102091.69;5006803;28;20037;-60
2022/07/22 01:18:36;;;;;;;14.10;5.97;;;;;;;16.68;84.27;102085.53;5019229;28;20405;-60
2022/07/22 01:21:02;;;;;;;13.55;5.68;;;;;;;16.71;83.37;102086.44;5008755;28;20409;-60
2022/07/22 01:23:27;;;;;;;13.77;5.82;;;;;;;16.68;83.60;102088.16;5006399;28;20033;-60
2022/07/22 01:25:53;;;;;;;14.75;5.60;;;;;;;16.66;83.39;102081.09;5008529;28;20542;-61
2022/07/22 01:28:18;;;;;;;14.75;5.95;;;;;;;16.64;83.31;102074.91;5002909;28;20033;-61
2022/07/22 01:30:44;;;;;;;13.02;5.82;;;;;;;16.65;83.03;102076.69;5007528;28;20041;-61
2022/07/22 01:33:09;;;;;;;12.68;4.90;;;;;;;16.61;82.83;102074.84;5006376;28;20030;-61
2022/07/22 01:35:35;;;;;;;13.05;5.25;;;;;;;16.60;82.62;102081.00;5006709;28;20022;-60
2022/07/22 01:38:00;;;;;;;16.73;5.65;;;;;;;16.56;82.69;102080.03;5007772;28;20343;-60
2022/07/22 01:40:25;;;;;;;14.82;4.93;;;;;;;16.52;82.72;102083.47;5007558;28;20547;-60
2022/07/22 01:42:51;;;;;;;12.82;5.13;;;;;;;16.49;81.82;102084.28;5005819;28;20087;-60
2022/07/22 01:45:16;;;;;;;12.80;5.25;;;;;;;16.47;81.95;102087.75;5008571;28;20078;-60
2022/07/22 01:47:42;;;;;;;11.32;5.05;;;;;;;16.42;81.35;102079.75;5007297;28;20168;-60
2022/07/22 01:50:09;;;;;;;13.13;5.70;;;;;;;16.41;81.69;102078.00;5002862;28;20075;-61
2022/07/22 01:52:36;;;;;;;13.43;5.45;;;;;;;16.38;81.61;102082.31;5000841;28;20045;-60
2022/07/22 01:55:02;;;;;;;15.68;5.78;;;;;;;16.36;81.28;102082.28;5008000;28;20033;-60
2022/07/22 01:57:27;;;;;;;18.65;5.50;;;;;;;16.34;81.36;102081.38;5009024;28;20034;-60
2022/07/22 01:59:52;;;;;;;12.07;5.60;;;;;;;16.32;81.97;102088.31;5005489;28;20103;-61
2022/07/22 02:02:18;;;;;;;12.88;5.38;;;;;;;16.33;81.60;102084.84;5006005;28;20536;-60
2022/07/22 02:04:43;;;;;;;11.45;5.53;;;;;;;16.31;81.85;102086.56;5006243;28;20064;-60
2022/07/22 02:07:08;;;;;;;12.95;5.63;;;;;;;16.28;82.20;102086.47;5006863;28;20065;-61
2022/07/22 02:09:34;;;;;;;15.85;5.82;;;;;;;16.27;82.43;102079.47;5005478;28;20046;-61
2022/07/22 02:11:59;;;;;;;11.93;5.78;;;;;;;16.27;82.97;102077.72;4999136;28;20105;-60
2022/07/22 02:14:24;;;;;;;14.65;5.72;;;;;;;16.26;82.68;102077.69;5008788;28;20018;-60
2022/07/22 02:16:50;;;;;;;13.95;6.15;;;;;;;16.27;83.40;102080.34;5004707;28;20026;-60
2022/07/22 02:19:15;;;;;;;13.80;6.20;;;;;;;16.26;83.08;102068.03;5006815;28;20321;-61
2022/07/22 02:21:40;;;;;;;14.63;6.35;;;;;;;16.26;82.90;102078.56;5004855;28;20033;-60
2022/07/22 02:24:06;;;;;;;12.60;5.55;;;;;;;16.25;83.20;102075.91;5004601;28;20018;-61
2022/07/22 02:26:31;;;;;;;13.60;5.25;;;;;;;16.25;83.61;102075.91;5009393;28;20569;-61
2022/07/22 02:28:57;;;;;;;12.20;5.38;;;;;;;16.25;83.52;102075.91;5004418;28;20472;-60
2022/07/22 02:31:22;;;;;;;12.32;5.55;;;;;;;16.25;83.23;102075.91;5006075;28;20033;-61
2022/07/22 02:33:47;;;;;;;11.63;5.60;;;;;;;16.24;83.77;102079.41;5009512;28;20121;-61
2022/07/22 02:36:13;;;;;;;12.00;5.43;;;;;;;16.23;83.94;102075.00;5012607;28;20121;-61
2022/07/22 02:38:38;;;;;;;16.15;6.30;;;;;;;16.22;84.20;102071.50;5009149;28;20061;-60
2022/07/22 02:41:04;;;;;;;14.73;5.82;;;;;;;16.21;83.79;102080.22;5006097;28;20075;-60
2022/07/22 02:43:29;;;;;;;14.35;6.35;;;;;;;16.20;83.98;102077.56;5005465;28;20021;-60
2022/07/22 02:45:54;;;;;;;11.77;5.97;;;;;;;16.20;84.17;102067.94;5010932;28;20045;-60
2022/07/22 02:48:20;;;;;;;13.43;5.90;;;;;;;16.22;84.31;102074.13;5006742;28;20041;-61
2022/07/22 02:50:46;;;;;;;11.95;6.28;;;;;;;16.22;84.17;102076.75;5011659;28;20471;-61
2022/07/22 02:53:12;;;;;;;12.13;6.03;;;;;;;16.22;84.71;102070.59;5009275;28;20119;-61
2022/07/22 02:55:37;;;;;;;13.48;6.00;;;;;;;16.22;84.57;102067.97;5009599;28;20093;-61
2022/07/22 02:58:07;;;;;;;15.10;6.00;;;;;;;16.23;84.72;102072.38;5008938;28;20026;-61
2022/07/22 03:00:34;;;;;;;14.65;6.13;;;;;;;16.23;85.07;102069.75;5006958;28;20049;-60
2022/07/22 03:02:59;;;;;;;16.20;6.70;;;;;;;16.22;84.38;102070.59;5007730;28;20115;-60
2022/07/22 03:05:25;;;;;;;16.30;6.13;;;;;;;16.22;84.77;102068.88;5008613;28;20075;-60
2022/07/22 03:07:50;;;;;;;13.73;6.30;;;;;;;16.23;84.49;102054.84;5011106;28;20400;-60
2022/07/22 03:10:15;;;;;;;13.60;6.55;;;;;;;16.21;84.68;102064.47;5011725;28;20044;-61
2022/07/22 03:12:41;;;;;;;15.15;6.68;;;;;;;16.19;85.07;102058.25;5007694;28;20399;-61
2022/07/22 03:15:06;;;;;;;18.90;6.60;;;;;;;16.20;84.47;102054.78;5004837;28;20106;-60
2022/07/22 03:17:36;;;;;;;15.68;6.32;;;;;;;16.20;84.50;102059.16;5011706;28;20041;-60
2022/07/22 03:20:06;;;;;;;15.43;6.30;;;;;;;16.19;84.91;102050.38;5008914;28;20034;-60
2022/07/22 03:22:31;;;;;;;14.40;6.63;;;;;;;16.20;84.34;102057.41;5009002;28;20038;-60
2022/07/22 03:24:57;;;;;;;13.95;6.38;;;;;;;16.18;84.56;102056.50;5005564;28;20026;-60
2022/07/22 03:27:22;;;;;;;13.70;6.47;;;;;;;16.19;84.93;102057.38;5009950;28;20120;-60
2022/07/22 03:29:47;;;;;;;15.68;7.22;;;;;;;16.16;85.14;102051.22;5003265;28;20041;-60
2022/07/22 03:32:13;;;;;;;14.55;6.18;;;;;;;16.16;85.31;102050.31;5006632;28;20034;-61
2022/07/22 03:34:38;;;;;;;14.80;6.47;;;;;;;16.16;84.89;102050.31;5008809;28;20038;-60
2022/07/22 03:37:03;;;;;;;17.40;6.40;;;;;;;16.15;84.94;102052.06;5011958;28;20029;-61
2022/07/22 03:39:29;;;;;;;14.10;6.75;;;;;;;16.16;84.75;102058.19;5009499;28;20037;-60
2022/07/22 03:41:54;;;;;;;15.68;6.95;;;;;;;16.15;84.75;102053.81;5010991;28;20045;-60
2022/07/22 03:44:19;;;;;;;13.90;6.80;;;;;;;16.14;85.08;102052.91;5005060;28;20101;-60
2022/07/22 03:46:45;;;;;;;13.38;6.18;;;;;;;16.12;84.94;102057.28;5007586;28;20061;-60
2022/07/22 03:49:10;;;;;;;15.30;7.10;;;;;;;16.13;84.97;102053.78;5007160;28;20021;-60
2022/07/22 03:51:36;;;;;;;17.17;6.75;;;;;;;16.15;84.87;102059.09;5008935;28;20033;-60
2022/07/22 03:54:01;;;;;;;13.43;6.38;;;;;;;16.14;84.74;102063.44;5009591;28;20485;-60
2022/07/22 03:56:26;;;;;;;15.63;6.30;;;;;;;16.14;84.73;102070.44;5007470;28;20037;-61
2022/07/22 03:58:52;;;;;;;16.90;6.95;;;;;;;16.15;85.31;102070.47;5009755;28;20030;-60
2022/07/22 04:01:17;;;;;;;15.50;7.13;;;;;;;16.15;85.19;102065.22;5011486;28;20044;-60
2022/07/22 04:03:42;;;;;;;15.02;7.25;;;;;;;16.15;84.95;102059.97;5009297;28;20026;-60
2022/07/22 04:06:08;;;;;;;13.27;6.22;;;;;;;16.15;84.72;102065.22;5005199;28;20037;-60
2022/07/22 04:08:33;;;;;;;19.15;6.55;;;;;;;16.15;85.54;102070.47;5010938;28;20101;-60
2022/07/22 04:10:59;;;;;;;19.55;6.72;;;;;;;16.15;85.16;102067.84;5008093;28;20033;-60
2022/07/22 04:13:24;;;;;;;16.50;6.53;;;;;;;16.16;84.86;102069.63;5009817;28;20061;-60
2022/07/22 04:15:50;;;;;;;13.98;5.63;;;;;;;16.15;86.16;102080.13;5009639;28;20064;-60
2022/07/22 04:18:17;;;;;;;15.13;6.63;;;;;;;16.16;85.40;102072.25;5005388;28;20048;-60
2022/07/22 04:20:42;;;;;;;12.80;6.28;;;;;;;16.17;85.92;102071.38;5006437;28;20102;-60
2022/07/22 04:23:08;;;;;;;12.80;5.90;;;;;;;16.17;85.11;102068.75;5006194;28;20037;-60
2022/07/22 04:25:33;;;;;;;15.35;6.43;;;;;;;16.19;85.80;102075.78;5006999;28;20030;-60
2022/07/22 04:27:59;;;;;;;16.60;6.63;;;;;;;16.17;86.67;102071.38;5007078;28;20022;-61
2022/07/22 04:30:25;;;;;;;17.02;7.03;;;;;;;16.20;85.75;102067.06;5005555;28;20092;-60
2022/07/22 04:32:51;;;;;;;14.30;6.65;;;;;;;16.20;85.79;102070.56;5007134;28;20025;-60
2022/07/22 04:35:16;;;;;;;17.10;7.13;;;;;;;16.21;86.64;102068.84;5009568;28;20117;-61
2022/07/22 04:37:41;;;;;;;14.90;6.97;;;;;;;16.21;86.82;102066.22;5007551;28;20108;-60
2022/07/22 04:40:07;;;;;;;17.17;7.47;;;;;;;16.21;86.49;102063.59;5009764;28;20047;-60
2022/07/22 04:42:32;;;;;;;16.15;6.90;;;;;;;16.22;85.76;102062.69;5008583;28;20481;-60
2022/07/22 04:44:58;;;;;;;16.10;7.00;;;;;;;16.23;85.94;102062.72;5009812;28;20038;-60
2022/07/22 04:47:23;;;;;;;15.57;7.45;;;;;;;16.26;86.13;102064.53;5005790;28;20114;-60
2022/07/22 04:49:48;;;;;;;15.70;7.07;;;;;;;16.25;86.47;102060.13;5009157;28;20036;-60
2022/07/22 04:52:13;;;;;;;20.45;7.80;;;;;;;16.27;86.04;102058.44;5003999;28;20080;-61
2022/07/22 04:54:39;;;;;;;16.08;7.50;;;;;;;16.28;85.98;102054.94;5006866;28;20425;-60
2022/07/22 04:57:04;;;;;;;18.10;8.05;;;;;;;16.27;85.96;102058.44;5005658;28;20030;-60
2022/07/22 04:59:29;;;;;;;17.38;7.65;;;;;;;16.29;85.79;102059.34;5006596;28;20030;-60
2022/07/22 05:01:55;;;;;;;20.02;7.63;;;;;;;16.29;86.11;102048.81;5004044;28;20485;-60
2022/07/22 05:04:20;;;;;;;16.90;8.00;;;;;;;16.30;86.22;102047.97;5010173;28;20049;-60
2022/07/22 05:06:45;;;;;;;16.58;7.75;;;;;;;16.30;86.75;102054.09;5000376;28;20033;-60
2022/07/22 05:09:11;;;;;;;18.75;7.97;;;;;;;16.32;86.12;102054.13;5007708;28;20038;-60
2022/07/22 05:11:36;;;;;;;23.15;8.68;;;;;;;16.32;86.19;102059.41;5005608;28;20030;-60
2022/07/22 05:14:01;;;;;;;19.15;7.60;;;;;;;16.33;87.18;102048.03;5005329;28;20025;-60
2022/07/22 05:16:27;;;;;;;19.58;7.78;;;;;;;16.34;86.62;102040.16;5010200;28;20030;-60
2022/07/22 05:18:52;;;;;;;22.35;8.05;;;;;;;16.35;86.67;102048.94;5002763;28;20034;-61
2022/07/22 05:21:17;;;;;;;19.30;8.82;;;;;;;16.35;86.18;102048.94;5003123;28;20477;-60
2022/07/22 05:23:43;;;;;;;17.25;8.07;;;;;;;16.37;85.46;102047.22;5006057;28;20296;-60
2022/07/22 05:26:09;;;;;;;19.48;8.15;;;;;;;16.36;86.38;102044.56;5008307;28;20065;-60
2022/07/22 05:28:34;;;;;;;15.25;7.63;;;;;;;16.36;85.92;102045.44;5006932;28;20029;-60
2022/07/22 05:31:00;;;;;;;16.20;7.32;;;;;;;16.38;85.45;102041.13;5005599;28;20092;-61
2022/07/22 05:33:25;;;;;;;16.13;7.50;;;;;;;16.40;85.76;102043.78;5004271;28;20485;-60
2022/07/22 05:35:51;;;;;;;19.25;8.90;;;;;;;16.40;86.31;102049.91;5007777;28;20033;-60
2022/07/22 05:38:16;;;;;;;18.00;7.68;;;;;;;16.41;86.76;102050.78;5005636;28;20421;-61
2022/07/22 05:40:41;;;;;;;18.38;8.30;;;;;;;16.41;86.76;102051.69;5009942;28;20028;-60
2022/07/22 05:43:07;;;;;;;18.58;8.85;;;;;;;16.42;87.74;102056.06;5006649;28;20042;-60
2022/07/22 05:45:32;;;;;;;21.13;9.07;;;;;;;16.43;86.78;102062.25;5008025;28;20034;-61
2022/07/22 05:47:57;;;;;;;18.67;8.55;;;;;;;16.43;86.57;102060.50;5009223;28;20030;-60
2022/07/22 05:50:23;;;;;;;18.80;8.13;;;;;;;16.44;86.94;102062.28;5007975;28;20612;-60
2022/07/22 05:52:48;;;;;;;20.02;8.65;;;;;;;16.46;86.72;102063.19;5005101;28;20064;-60
2022/07/22 05:55:13;;;;;;;18.38;8.55;;;;;;;16.45;86.96;102063.16;5009035;28;20033;-61
2022/07/22 05:57:38;;;;;;;23.88;8.80;;;;;;;16.47;86.83;102057.06;5008560;28;20164;-61
2022/07/22 06:00:05;;;;;;;18.73;8.50;;;;;;;16.47;86.94;102056.19;5008825;28;20034;-60
2022/07/22 06:02:31;;;;;;;18.98;8.45;;;;;;;16.50;87.21;102048.34;5011429;28;20127;-61
2022/07/22 06:04:56;;;;;;;16.35;7.68;;;;;;;16.51;86.46;102053.63;5010994;28;20421;-60
2022/07/22 06:07:21;;;;;;;21.90;8.23;;;;;;;16.52;86.83;102050.16;5012405;28;20022;-60
2022/07/22 06:09:46;;;;;;;19.05;7.85;;;;;;;16.54;86.09;102052.81;5009817;28;20042;-61
2022/07/22 06:12:12;;;;;;;20.38;7.60;;;;;;;16.57;85.83;102058.13;5006084;28;20485;-60
2022/07/22 06:14:37;;;;;;;20.95;7.85;;;;;;;16.58;86.61;102057.25;5011691;28;20029;-60
2022/07/22 06:17:03;;;;;;;19.95;8.15;;;;;;;16.61;86.77;102061.69;5006313;28;20101;-60
2022/07/22 06:19:29;;;;;;;18.35;7.35;;;;;;;16.63;86.62;102068.75;5007820;28;20037;-61
2022/07/22 06:21:55;;;;;;;22.58;7.82;;;;;;;16.65;86.03;102061.75;5006005;28;20342;-60
2022/07/22 06:24:21;;;;;;;20.80;7.60;;;;;;;16.67;85.65;102064.47;5011523;28;20030;-60
2022/07/22 06:26:46;;;;;;;20.30;7.72;;;;;;;16.69;85.17;102062.72;5005803;28;20401;-60
2022/07/22 06:29:11;;;;;;;16.67;6.53;;;;;;;16.73;85.83;102063.66;5007699;28;20025;-60
2022/07/22 06:31:37;;;;;;;16.10;7.47;;;;;;;16.74;84.86;102061.03;5008505;28;20475;-60
2022/07/22 06:34:05;;;;;;;16.23;7.47;;;;;;;16.76;84.71;102058.47;5011573;28;20036;-60
2022/07/22 06:36:33;;;;;;;20.13;8.10;;;;;;;16.78;84.42;102052.34;5010713;28;20026;-60
2022/07/22 06:38:58;;;;;;;15.95;6.85;;;;;;;16.79;84.44;102058.50;5010011;28;20038;-61
2022/07/22 06:41:24;;;;;;;18.30;7.40;;;;;;;16.80;83.55;102055.91;5010681;28;20586;-60
2022/07/22 06:43:50;;;;;;;13.50;6.38;;;;;;;16.83;82.60;102058.59;5009435;28;20473;-61
2022/07/22 06:46:15;;;;;;;15.05;5.85;;;;;;;16.85;82.16;102054.22;5007592;28;20038;-59
2022/07/22 06:48:41;;;;;;;13.70;6.53;;;;;;;16.90;81.83;102050.81;5005611;28;20026;-61
2022/07/22 06:51:06;;;;;;;20.50;7.00;;;;;;;16.94;83.06;102053.53;5006884;28;20037;-61
2022/07/22 06:53:32;;;;;;;15.60;6.68;;;;;;;16.99;84.95;102048.34;5007800;28;20025;-60
2022/07/22 06:55:57;;;;;;;12.68;6.03;;;;;;;17.03;83.94;102043.16;5007156;28;20104;-60
2022/07/22 06:58:23;;;;;;;15.60;5.10;;;;;;;17.07;84.61;102053.75;5008966;28;21276;-60
2022/07/22 07:00:48;;;;;;;12.05;5.13;;;;;;;17.07;82.21;102054.63;5011126;28;20021;-60
2022/07/22 07:03:14;;;;;;;11.13;4.30;;;;;;;17.09;83.34;102060.81;5005368;28;20029;-61
2022/07/22 07:05:39;;;;;;;10.18;4.22;;;;;;;17.11;81.71;102053.81;5008490;28;20129;-60
2022/07/22 07:08:04;;;;;;;12.52;4.82;;;;;;;17.14;80.73;102051.22;5011413;28;20036;-60
2022/07/22 07:10:30;;;;;;;12.60;4.45;;;;;;;17.13;78.52;102053.81;5005135;28;20144;-60
2022/07/22 07:12:57;;;;;;;11.27;5.22;;;;;;;17.16;79.00;102049.50;5006368;28;20054;-60
2022/07/22 07:15:22;;;;;;;10.10;4.55;;;;;;;17.17;78.58;102047.75;5001757;28;20060;-60
2022/07/22 07:17:47;;;;;;;12.85;4.90;;;;;;;17.21;79.65;102041.69;5010862;28;20473;-60
2022/07/22 07:20:13;;;;;;;9.98;3.97;;;;;;;17.25;78.74;102040.88;5005372;28;20042;-60
2022/07/22 07:22:38;;;;;;;9.18;4.03;;;;;;;17.29;79.75;102028.59;5010104;28;20053;-60
2022/07/22 07:25:06;;;;;;;8.02;4.05;;;;;;;17.33;78.37;102033.06;5010635;28;20025;-61
2022/07/22 07:27:31;;;;;;;9.23;4.07;;;;;;;17.36;77.77;102039.25;5011052;28;20108;-60
2022/07/22 07:29:57;;;;;;;9.65;4.22;;;;;;;17.42;76.88;102034.94;5006667;28;20160;-60
2022/07/22 07:32:22;;;;;;;10.00;4.10;;;;;;;17.46;78.14;102032.38;5002344;28;20037;-60
2022/07/22 07:34:47;;;;;;;8.85;3.40;;;;;;;17.54;77.75;102029.88;5001219;28;20406;-60
2022/07/22 07:37:13;;;;;;;6.05;2.05;;;;;;;17.59;77.38;102038.69;5005995;28;20037;-60
2022/07/22 07:39:38;;;;;;;3.60;1.83;;;;;;;17.62;76.17;102041.38;5010362;28;20018;-61
2022/07/22 07:42:03;;;;;;;4.80;2.30;;;;;;;17.66;73.40;102039.69;5005841;28;20405;-60
2022/07/22 07:44:29;;;;;;;7.07;2.20;;;;;;;17.67;73.96;102036.16;5006309;28;20018;-60
2022/07/22 07:46:54;;;;;;;4.13;2.05;;;;;;;17.69;73.42;102039.72;5010731;28;20022;-60
2022/07/22 07:49:19;;;;;;;5.28;2.25;;;;;;;17.70;74.51;102030.97;5007896;28;20032;-60
2022/07/22 07:51:45;;;;;;;6.43;2.30;;;;;;;17.70;74.49;102029.19;5003720;28;20029;-60
2022/07/22 07:54:10;;;;;;;5.22;2.45;;;;;;;17.72;74.30;102032.72;5009203;28;20397;-61
2022/07/22 07:56:35;;;;;;;5.95;2.63;;;;;;;17.74;75.63;102040.66;5006200;28;20104;-60
2022/07/22 07:59:01;;;;;;;13.25;3.40;;;;;;;17.76;76.22;102041.56;5007046;28;20474;-60
2022/07/22 08:01:26;;;;;;;6.90;2.95;;;;;;;17.75;76.01;102042.44;5010131;28;20485;-61
2022/07/22 08:03:51;;;;;;;7.70;2.83;;;;;;;17.76;76.81;102041.56;5008200;28;20041;-61
2022/07/22 08:06:17;;;;;;;6.32;2.70;;;;;;;17.77;76.56;102034.53;5002887;28;20104;-61
2022/07/22 08:08:42;;;;;;;3.70;2.05;;;;;;;17.77;74.90;102037.19;5008174;28;20056;-61
2022/07/22 08:11:08;;;;;;;6.70;2.20;;;;;;;17.76;73.56;102036.31;5007859;28;20030;-61
2022/07/22 08:13:33;;;;;;;5.97;2.25;;;;;;;17.80;74.95;102032.84;5006242;28;20031;-61
2022/07/22 08:15:59;;;;;;;6.65;2.53;;;;;;;17.85;74.31;102036.41;5001824;28;20022;-60
2022/07/22 08:18:24;;;;;;;4.75;2.00;;;;;;;17.92;73.89;102028.63;4999252;28;20029;-61
2022/07/22 08:20:50;;;;;;;4.13;1.83;;;;;;;17.95;71.13;102029.53;4998370;28;20030;-61
2022/07/22 08:23:15;;;;;;;3.28;1.80;;;;;;;17.98;70.82;102031.31;5007776;28;20022;-61
2022/07/22 08:25:40;;;;;;;5.05;1.98;;;;;;;18.01;72.08;102034.00;5009957;28;20038;-61
2022/07/22 08:28:06;;;;;;;3.95;2.13;;;;;;;18.04;71.86;102036.66;5010646;28;20026;-61
2022/07/22 08:30:31;;;;;;;5.15;2.30;;;;;;;18.10;74.08;102031.47;5011034;28;20025;-61
2022/07/22 08:32:57;;;;;;;4.38;2.40;;;;;;;18.17;73.33;102032.41;5010980;28;20495;-61
2022/07/22 08:35:23;;;;;;;5.75;2.58;;;;;;;18.23;71.08;102036.03;5010671;28;20025;-61
2022/07/22 08:37:48;;;;;;;6.40;2.63;;;;;;;18.34;73.75;102035.25;5010468;28;20469;-61
2022/07/22 08:40:16;;;;;;;7.10;2.63;;;;;;;18.43;71.24;102027.41;5006076;28;20049;-61
2022/07/22 08:42:43;;;;;;;6.53;2.92;;;;;;;18.49;69.83;102029.25;5004017;28;20537;-61
2022/07/22 08:45:10;;;;;;;9.23;3.80;;;;;;;18.57;69.96;102017.88;5010326;28;20057;-61
2022/07/22 08:47:35;;;;;;;7.15;3.25;;;;;;;18.64;71.98;102017.94;5010699;28;20040;-61
2022/07/22 08:50:01;;;;;;;6.30;2.83;;;;;;;18.70;69.98;102007.44;5010667;28;20097;-61
2022/07/22 08:52:26;;;;;;;6.65;3.00;;;;;;;18.72;68.27;102005.69;5009316;28;20025;-61
2022/07/22 08:54:51;;;;;;;6.93;2.95;;;;;;;18.78;71.60;102011.00;5010378;28;20025;-61
2022/07/22 08:57:17;;;;;;;6.57;3.25;;;;;;;18.84;72.91;102015.47;5008830;28;20022;-61
2022/07/22 08:59:51;;;;;;;6.50;3.13;;;;;;;18.93;69.97;102015.59;5008270;28;20038;-61
2022/07/22 09:02:17;;;;;;;7.63;3.50;;;;;;;18.98;70.29;102018.25;5009731;28;20071;-61
2022/07/22 09:04:56;;;;;;;9.15;3.60;;;;;;;18.99;68.04;102017.34;5008592;28;20022;-61
2022/07/22 09:07:35;;;;;;;5.90;3.00;;;;;;;19.01;70.51;102018.28;5009720;28;20084;-61
2022/07/22 09:10:04;;;;;;;7.60;3.60;;;;;;;19.04;71.54;102019.16;5007533;28;20116;-62
2022/07/22 09:12:30;;;;;;;5.90;3.08;;;;;;;19.05;68.08;102028.88;5004254;28;20026;-62
2022/07/22 09:14:56;;;;;;;7.95;3.25;;;;;;;19.05;68.58;102018.31;5008712;28;20036;-61
2022/07/22 09:17:35;;;;;;;7.15;3.03;;;;;;;19.13;70.86;102020.13;5007582;28;20382;-61
2022/07/22 09:20:16;;;;;;;7.30;3.17;;;;;;;19.18;68.76;102016.63;5009493;28;20026;-62
2022/07/22 09:22:47;;;;;;;8.98;3.83;;;;;;;19.24;68.40;102006.09;5008504;28;20076;-62
2022/07/22 09:25:20;;;;;;;7.50;3.15;;;;;;;19.29;68.58;102006.13;5009877;28;20034;-61
2022/07/22 09:27:45;;;;;;;6.88;3.35;;;;;;;19.35;68.42;102005.28;5009616;28;20025;-62
2022/07/22 09:30:13;;;;;;;7.22;3.33;;;;;;;19.38;66.56;102003.53;4991242;28;20069;-61
2022/07/22 09:32:43;;;;;;;7.30;3.22;;;;;;;19.41;69.33;102000.91;5008912;28;20037;-61
2022/07/22 09:35:10;;;;;;;7.57;3.50;;;;;;;19.41;67.30;102003.56;5011550;28;20029;-61
2022/07/22 09:37:37;;;;;;;6.85;3.00;;;;;;;19.42;68.83;102002.69;5011979;28;20109;-62
2022/07/22 09:40:13;;;;;;;5.75;3.30;;;;;;;19.46;69.62;102001.84;5010831;28;20031;-62
2022/07/22 09:42:54;;;;;;;6.70;3.30;;;;;;;19.52;68.81;101990.38;5013166;28;20033;-61
2022/07/22 09:45:21;;;;;;;7.70;3.17;;;;;;;19.60;67.91;101998.38;5007749;28;20030;-62
2022/07/22 09:47:48;;;;;;;8.88;3.75;;;;;;;19.68;65.51;101993.97;5012307;28;20116;-61
2022/07/22 09:50:17;;;;;;;8.35;3.90;;;;;;;19.80;70.74;101990.56;5012383;28;20030;-61
2022/07/22 09:52:44;;;;;;;8.30;3.70;;;;;;;19.91;67.99;101991.44;5011905;28;20029;-61
2022/07/22 09:55:10;;;;;;;6.13;3.63;;;;;;;20.00;66.84;101981.78;5011505;28;20576;-62
2022/07/22 09:57:35;;;;;;;9.00;3.80;;;;;;;20.07;66.50;101988.88;5013223;28;20124;-61
2022/07/22 10:00:00;;;;;;;8.07;3.28;;;;;;;20.16;63.61;101988.91;5013595;28;20018;-62
2022/07/22 10:02:27;;;;;;;10.05;3.53;;;;;;;20.22;63.57;102002.13;5011386;28;20133;-61
2022/07/22 10:04:55;;;;;;;5.75;3.72;;;;;;;20.24;61.38;101992.44;5013578;28;20377;-61
2022/07/22 10:07:23;;;;;;;8.43;3.43;;;;;;;20.30;60.43;101992.44;5011727;28;20026;-61
2022/07/22 10:09:50;;;;;;;6.13;2.85;;;;;;;20.37;61.43;101992.47;5013307;28;20311;-61
2022/07/22 10:12:17;;;;;;;6.68;3.40;;;;;;;20.42;61.65;101999.53;5010660;28;20505;-61
2022/07/22 10:14:45;;;;;;;7.28;3.50;;;;;;;20.48;62.88;102001.31;5011082;28;20026;-61
2022/07/22 10:17:13;;;;;;;7.00;3.20;;;;;;;20.45;59.75;102007.47;5013185;28;20393;-61
2022/07/22 10:19:39;;;;;;;8.82;3.75;;;;;;;20.49;60.13;101993.34;5011918;28;20026;-61
2022/07/22 10:22:04;;;;;;;6.13;3.08;;;;;;;20.50;60.09;101995.09;5011810;28;20040;-61
2022/07/22 10:24:30;;;;;;;9.25;3.38;;;;;;;20.56;60.52;101994.22;5012224;28;20036;-61
2022/07/22 10:26:57;;;;;;;7.13;2.90;;;;;;;20.60;61.87;102001.28;5011230;28;20026;-61
2022/07/22 10:29:40;;;;;;;5.78;3.28;;;;;;;20.67;63.00;101997.81;5009909;28;20029;-61
2022/07/22 10:32:17;;;;;;;6.82;3.58;;;;;;;20.83;64.86;101989.84;5012196;28;20061;-61
2022/07/22 10:34:58;;;;;;;6.15;3.40;;;;;;;20.97;65.59;101996.03;5011670;28;20121;-61
2022/07/22 10:37:35;;;;;;;6.63;3.80;;;;;;;21.03;64.77;101992.50;5011625;28;20038;-61
2022/07/22 10:40:20;;;;;;;6.45;3.47;;;;;;;21.07;63.91;101998.66;5011947;28;20034;-62
2022/07/22 10:43:00;;;;;;;8.23;3.92;;;;;;;21.03;61.15;101995.13;5011415;28;20040;-62
2022/07/22 10:45:32;;;;;;;7.22;3.55;;;;;;;21.02;61.19;101999.53;5008916;28;20526;-61
2022/07/22 10:48:00;;;;;;;7.30;3.70;;;;;;;21.09;62.82;101991.59;5012143;28;20034;-61
2022/07/22 10:50:37;;;;;;;6.83;3.10;;;;;;;21.15;61.61;101983.63;4999408;28;20018;-61
2022/07/22 10:53:08;;;;;;;8.23;3.60;;;;;;;21.23;61.36;101978.31;5011375;28;20303;-61
2022/07/22 10:55:34;;;;;;;6.70;3.47;;;;;;;21.32;61.71;101981.81;5011862;28;20113;-61
2022/07/22 10:58:00;;;;;;;10.63;3.90;;;;;;;21.47;63.50;101978.22;5012037;28;20063;-61
2022/07/22 11:00:26;;;;;;;9.13;3.90;;;;;;;21.55;58.48;101972.91;5007593;28;20030;-61
2022/07/22 11:02:51;;;;;;;6.35;3.33;;;;;;;21.64;60.33;101967.59;5009947;28;20030;-61
2022/07/22 11:05:27;;;;;;;7.00;4.10;;;;;;;21.68;59.59;101969.34;5010431;28;20037;-61
2022/07/22 11:07:52;;;;;;;7.82;4.05;;;;;;;21.76;58.23;101966.63;5007601;28;20475;-61
2022/07/22 11:10:20;;;;;;;9.52;3.92;;;;;;;21.82;58.70;101966.59;5011524;28;20021;-61
2022/07/22 11:12:47;;;;;;;9.23;4.32;;;;;;;21.87;58.89;101971.91;5010530;28;20079;-61
2022/07/22 11:15:13;;;;;;;9.52;4.68;;;;;;;21.89;59.55;101964.81;5011472;28;20030;-61